Time;durP1;ratioP1;P1;durP2;ratioP2;P2;SDS_P1;SDS_P2;PMS_P1;PMS_P2;Temp;Humidity;BMP_temperature;BMP_pressure;BME280_temperature;BME280_humidity;BME280_pressure;Samples;Min_cycle;Max_cycle;Signal;HPM_P1;HPM_P2
2022/12/02 00:01:15;;;;;;;73.20;31.02;;;;;;;6.55;81.31;102535.09;5032984;28;20037;-61
2022/12/02 00:03:41;;;;;;;70.65;30.25;;;;;;;6.48;82.33;102527.72;5032531;28;20041;-61
2022/12/02 00:06:14;;;;;;;75.88;33.78;;;;;;;6.39;81.24;102527.22;5033207;28;20056;-62
2022/12/02 00:08:39;;;;;;;68.05;30.00;;;;;;;6.38;80.87;102523.69;5032909;28;20026;-62
2022/12/02 00:11:27;;;;;;;74.43;30.45;;;;;;;6.39;80.88;102521.97;5032844;28;20036;-62
2022/12/02 00:13:55;;;;;;;62.83;29.98;;;;;;;6.41;80.51;102528.19;5032974;28;20108;-61
2022/12/02 00:16:23;;;;;;;67.55;28.88;;;;;;;6.41;80.92;102523.84;5032824;28;20034;-62
2022/12/02 00:18:49;;;;;;;68.90;29.67;;;;;;;6.40;80.57;102524.69;5032817;28;20084;-61
2022/12/02 00:21:16;;;;;;;70.10;30.00;;;;;;;6.42;81.25;102519.50;5032765;28;20452;-61
2022/12/02 00:23:41;;;;;;;63.15;30.15;;;;;;;6.45;80.50;102519.66;5032748;28;20395;-62
2022/12/02 00:26:07;;;;;;;68.80;29.55;;;;;;;6.43;80.45;102524.84;5032799;28;20030;-62
2022/12/02 00:28:32;;;;;;;66.18;29.35;;;;;;;6.48;80.12;102522.47;5032799;28;20053;-61
2022/12/02 00:30:57;;;;;;;65.93;29.35;;;;;;;6.43;80.19;102511.72;5032701;28;20036;-61
2022/12/02 00:33:23;;;;;;;69.85;30.63;;;;;;;6.38;80.08;102512.28;5032631;28;20025;-61
2022/12/02 00:35:48;;;;;;;67.55;30.25;;;;;;;6.32;80.43;102507.59;5032534;28;20463;-61
2022/12/02 00:38:14;;;;;;;61.70;28.55;;;;;;;6.30;80.69;102503.09;5032663;28;20029;-62
2022/12/02 00:40:40;;;;;;;66.40;28.95;;;;;;;6.27;80.04;102501.19;5014999;28;20032;-62
2022/12/02 00:48:34;;;;;;;59.92;28.67;;;;;;;6.21;80.27;102499.16;5033030;28;20044;-62
2022/12/02 00:50:59;;;;;;;61.58;27.77;;;;;;;6.19;80.21;102497.25;5032476;28;20395;-61
2022/12/02 00:53:25;;;;;;;60.80;28.58;;;;;;;6.18;80.31;102490.19;5032402;28;20028;-61
2022/12/02 00:55:50;;;;;;;64.05;27.00;;;;;;;6.13;79.92;102486.44;5014755;28;20486;-61
2022/12/02 00:58:15;;;;;;;61.33;28.00;;;;;;;6.08;80.65;102487.88;5032417;28;20018;-61
2022/12/02 01:00:41;;;;;;;61.28;27.70;;;;;;;6.06;80.77;102490.41;5032277;28;20417;-61
2022/12/02 01:03:06;;;;;;;60.90;27.60;;;;;;;6.01;80.50;102482.28;5032380;28;20029;-61
2022/12/02 01:05:32;;;;;;;61.08;27.95;;;;;;;5.99;80.99;102496.13;5032317;28;20426;-61
2022/12/02 01:07:57;;;;;;;64.15;27.23;;;;;;;5.93;80.88;102480.06;5032791;28;20026;-61
2022/12/02 01:10:23;;;;;;;64.15;28.13;;;;;;;5.89;81.02;102486.81;5036360;28;20463;-61
2022/12/02 01:12:48;;;;;;;61.33;27.02;;;;;;;5.87;81.41;102487.56;5035871;28;20482;-61
2022/12/02 01:15:13;;;;;;;58.50;27.60;;;;;;;5.85;81.06;102482.22;5035952;28;20101;-62
2022/12/02 01:17:39;;;;;;;68.93;27.15;;;;;;;5.87;80.96;102479.69;5036046;28;20029;-61
2022/12/02 01:20:06;;;;;;;66.82;28.73;;;;;;;5.87;80.99;102484.94;5035871;28;20034;-61
2022/12/02 01:22:32;;;;;;;68.50;27.98;;;;;;;5.90;81.13;102485.09;5035742;28;20033;-61
2022/12/02 01:24:57;;;;;;;63.67;27.40;;;;;;;5.91;81.10;102486.88;5035796;28;20064;-61
2022/12/02 01:27:23;;;;;;;60.95;26.38;;;;;;;5.89;81.52;102486.81;5035755;28;20084;-61
2022/12/02 01:29:49;;;;;;;63.78;27.02;;;;;;;5.87;81.43;102487.56;5035926;28;20105;-61
2022/12/02 01:32:14;;;;;;;60.22;25.45;;;;;;;5.88;81.49;102489.38;5017861;28;20029;-61
2022/12/02 01:34:41;;;;;;;59.05;25.90;;;;;;;5.86;80.86;102477.88;5035566;28;20387;-61
2022/12/02 01:37:06;;;;;;;57.35;25.08;;;;;;;5.83;80.90;102480.34;5035891;28;20033;-60
2022/12/02 01:39:32;;;;;;;56.95;26.35;;;;;;;5.81;81.47;102485.47;5035436;28;20386;-61
2022/12/02 01:41:58;;;;;;;57.33;26.23;;;;;;;5.85;81.78;102483.94;5035231;28;20163;-61
2022/12/02 01:44:23;;;;;;;57.00;25.52;;;;;;;5.84;81.38;102490.91;5035309;28;20133;-61
2022/12/02 01:46:49;;;;;;;59.95;26.02;;;;;;;5.85;81.77;102481.31;5035623;28;20108;-60
2022/12/02 01:49:14;;;;;;;55.25;25.85;;;;;;;5.78;81.08;102478.38;5035682;28;20029;-62
2022/12/02 01:51:40;;;;;;;59.15;26.15;;;;;;;5.77;81.65;102481.78;5035264;28;20032;-60
2022/12/02 01:54:05;;;;;;;56.67;25.83;;;;;;;5.76;81.70;102481.69;5035559;28;20038;-61
2022/12/02 01:56:31;;;;;;;63.40;28.00;;;;;;;5.74;81.85;102480.72;5035188;28;20047;-61
2022/12/02 01:58:56;;;;;;;59.20;26.90;;;;;;;5.71;81.79;102480.53;5035213;28;20030;-61
2022/12/02 02:01:30;;;;;;;64.53;25.88;;;;;;;5.71;81.78;102476.19;5035188;28;20533;-61
2022/12/02 02:03:56;;;;;;;55.08;26.15;;;;;;;5.75;81.64;102482.53;5017470;28;20108;-61
2022/12/02 02:06:24;;;;;;;53.38;25.83;;;;;;;5.75;81.95;102486.03;5034974;28;20033;-61
2022/12/02 02:08:51;;;;;;;56.45;25.52;;;;;;;5.75;80.86;102480.81;5035349;28;20075;-61
2022/12/02 02:11:16;;;;;;;57.15;26.30;;;;;;;5.75;81.27;102482.53;5035262;28;20104;-62
2022/12/02 02:13:42;;;;;;;60.40;25.75;;;;;;;5.79;81.46;102481.88;5034781;28;20469;-61
2022/12/02 02:16:07;;;;;;;62.00;28.02;;;;;;;5.75;80.73;102482.53;5034778;28;20520;-61
2022/12/02 02:18:33;;;;;;;59.95;26.05;;;;;;;5.75;80.14;102480.81;5034876;28;20040;-61
2022/12/02 02:20:59;;;;;;;56.80;26.10;;;;;;;5.74;80.58;102475.47;5034136;28;20029;-61
2022/12/02 02:23:25;;;;;;;58.17;26.98;;;;;;;5.72;79.85;102479.72;5034816;28;20509;-61
2022/12/02 02:25:55;;;;;;;65.43;28.30;;;;;;;5.66;80.20;102485.53;5034609;28;20552;-61
2022/12/02 02:28:23;;;;;;;63.38;27.38;;;;;;;5.68;80.30;102481.25;5034574;28;20109;-61
2022/12/02 02:30:50;;;;;;;59.92;27.73;;;;;;;5.57;79.87;102485.00;5034525;28;20040;-61
2022/12/02 02:33:16;;;;;;;62.00;27.38;;;;;;;5.49;79.94;102487.19;5034668;28;20053;-62
2022/12/02 02:35:44;;;;;;;62.47;26.80;;;;;;;5.42;79.48;102476.25;5034372;28;20053;-61
2022/12/02 02:38:13;;;;;;;57.45;25.90;;;;;;;5.37;79.27;102475.09;5016796;28;20104;-61
2022/12/02 02:40:39;;;;;;;53.25;24.95;;;;;;;5.32;78.47;102474.81;5034379;28;20435;-61
2022/12/02 02:43:05;;;;;;;55.75;25.13;;;;;;;5.31;79.53;102473.03;5034059;28;20037;-62
2022/12/02 02:45:34;;;;;;;55.47;24.67;;;;;;;5.30;80.06;102470.28;5034334;28;20084;-61
2022/12/02 02:48:02;;;;;;;56.13;24.58;;;;;;;5.32;79.75;102463.44;5034272;28;20097;-61
2022/12/02 02:50:28;;;;;;;55.97;24.13;;;;;;;5.34;78.87;102465.31;5034441;28;20434;-61
2022/12/02 02:52:54;;;;;;;54.42;25.35;;;;;;;5.28;78.85;102459.72;5034053;28;20438;-61
2022/12/02 02:55:23;;;;;;;49.00;23.80;;;;;;;5.30;79.09;102468.56;5033976;28;20490;-62
2022/12/02 02:57:49;;;;;;;52.92;23.98;;;;;;;5.28;78.85;102467.59;5016301;28;20025;-61
2022/12/02 03:00:16;;;;;;;53.88;24.45;;;;;;;5.20;78.70;102461.00;5034045;28;20022;-61
2022/12/02 03:02:45;;;;;;;52.53;24.77;;;;;;;5.17;78.99;102466.06;5033884;28;20040;-61
2022/12/02 03:05:11;;;;;;;50.28;23.98;;;;;;;5.13;78.21;102457.09;5033911;28;20033;-61
2022/12/02 03:07:37;;;;;;;51.38;24.00;;;;;;;5.12;78.62;102452.69;5016250;28;20063;-61
2022/12/02 03:10:04;;;;;;;53.63;25.48;;;;;;;5.07;78.49;102448.91;5033762;28;20030;-61
2022/12/02 03:12:30;;;;;;;54.00;25.17;;;;;;;5.06;78.33;102446.19;5033830;28;20022;-61
2022/12/02 03:14:56;;;;;;;55.50;25.13;;;;;;;5.08;79.14;102444.56;5033648;28;20033;-61
2022/12/02 03:17:22;;;;;;;49.85;23.77;;;;;;;5.11;78.46;102440.41;5033917;28;20037;-62
2022/12/02 03:19:47;;;;;;;48.95;23.63;;;;;;;5.10;78.45;102443.84;5033658;28;20029;-61
2022/12/02 03:22:13;;;;;;;57.10;23.67;;;;;;;5.14;78.39;102439.66;5033585;28;20053;-61
2022/12/02 03:24:39;;;;;;;51.42;23.08;;;;;;;5.11;78.27;102450.00;5033543;28;20487;-62
2022/12/02 03:27:06;;;;;;;55.67;24.48;;;;;;;5.02;77.47;102446.00;5033311;28;20103;-61
2022/12/02 03:29:32;;;;;;;52.08;23.98;;;;;;;4.98;78.03;102448.38;5033759;28;20038;-61
2022/12/02 03:31:59;;;;;;;50.85;24.50;;;;;;;4.89;78.63;102443.47;5032790;28;20152;-61
2022/12/02 03:34:26;;;;;;;57.05;25.15;;;;;;;4.82;78.95;102443.03;5015591;28;20033;-61
2022/12/02 03:36:51;;;;;;;50.92;22.92;;;;;;;4.86;78.87;102442.38;5033427;28;20037;-61
2022/12/02 03:39:17;;;;;;;51.60;23.67;;;;;;;4.91;79.25;102433.09;5033297;28;20035;-61
2022/12/02 03:41:44;;;;;;;51.25;23.40;;;;;;;4.97;78.86;102436.97;5033464;28;20029;-61
2022/12/02 03:44:10;;;;;;;50.88;22.55;;;;;;;5.09;78.27;102435.88;5032854;28;20045;-61
2022/12/02 03:46:35;;;;;;;50.20;22.38;;;;;;;5.10;78.18;102425.50;5033205;28;20030;-61
2022/12/02 03:49:01;;;;;;;54.55;23.98;;;;;;;5.07;77.55;102430.56;5033176;28;20030;-61
2022/12/02 03:51:27;;;;;;;58.00;24.80;;;;;;;5.03;77.75;102434.72;5033071;28;20426;-61
2022/12/02 03:53:52;;;;;;;56.13;24.02;;;;;;;5.04;78.13;102425.13;5032953;28;20021;-61
2022/12/02 03:56:18;;;;;;;56.47;24.10;;;;;;;5.03;78.36;102420.72;5032942;28;20040;-61
2022/12/02 03:58:47;;;;;;;53.65;24.40;;;;;;;5.00;78.81;102416.19;5033062;28;20025;-61
2022/12/02 04:01:14;;;;;;;53.83;24.45;;;;;;;4.99;78.64;102416.09;5032940;28;20108;-61
2022/12/02 04:03:39;;;;;;;54.90;24.60;;;;;;;4.96;78.34;102413.28;5033237;28;20026;-62
2022/12/02 04:06:04;;;;;;;60.13;26.40;;;;;;;4.94;79.10;102414.94;5032928;28;20103;-61
2022/12/02 04:08:30;;;;;;;53.80;24.48;;;;;;;4.94;78.62;102415.84;5032939;28;20026;-61
2022/12/02 04:10:55;;;;;;;53.72;24.05;;;;;;;4.96;79.02;102419.44;5033013;28;20037;-61
2022/12/02 04:13:21;;;;;;;54.33;24.63;;;;;;;4.93;79.17;102403.56;5032732;28;20029;-61
2022/12/02 04:15:46;;;;;;;55.47;24.10;;;;;;;4.95;79.84;102412.41;5032820;28;20025;-61
2022/12/02 04:18:12;;;;;;;52.25;23.33;;;;;;;4.95;79.79;102408.88;5032832;28;20445;-61
2022/12/02 04:20:37;;;;;;;52.45;23.17;;;;;;;4.93;79.60;102411.41;5033016;28;20072;-62
2022/12/02 04:23:02;;;;;;;52.58;22.95;;;;;;;4.93;79.67;102407.91;5032711;28;20403;-61
2022/12/02 04:25:28;;;;;;;55.22;22.52;;;;;;;4.94;79.54;102393.97;5032806;28;20156;-61
2022/12/02 04:27:53;;;;;;;52.25;22.85;;;;;;;4.93;79.25;102407.91;5032704;28;20471;-61
2022/12/02 04:30:18;;;;;;;51.70;21.38;;;;;;;4.89;79.41;102408.53;5032715;28;20069;-61
2022/12/02 04:32:44;;;;;;;52.63;21.95;;;;;;;4.84;79.66;102410.88;5032896;28;20021;-61
2022/12/02 04:35:09;;;;;;;45.47;20.20;;;;;;;4.76;78.85;102406.91;5032681;28;20029;-61
2022/12/02 04:37:35;;;;;;;43.85;19.08;;;;;;;4.71;78.21;102413.56;5032802;28;20104;-61
2022/12/02 04:40:01;;;;;;;43.53;19.10;;;;;;;4.68;78.24;102413.41;5032664;28;20494;-61
2022/12/02 04:42:26;;;;;;;47.35;19.52;;;;;;;4.64;78.87;102411.41;5014573;28;20140;-61
2022/12/02 04:44:52;;;;;;;46.00;19.40;;;;;;;4.63;79.00;102399.13;5035936;28;20032;-61
2022/12/02 04:47:17;;;;;;;42.08;18.63;;;;;;;4.60;78.80;102394.59;5036516;28;20041;-61
2022/12/02 04:49:42;;;;;;;45.78;19.95;;;;;;;4.63;79.44;102391.28;5036552;28;20041;-61
2022/12/02 04:52:08;;;;;;;48.72;19.88;;;;;;;4.60;78.89;102394.59;5019003;28;20379;-61
2022/12/02 04:54:33;;;;;;;42.35;18.85;;;;;;;4.54;78.13;102391.63;5036241;28;20029;-61
2022/12/02 04:56:59;;;;;;;44.95;18.95;;;;;;;4.49;78.11;102383.47;5036333;28;20391;-61
2022/12/02 04:59:24;;;;;;;37.63;17.38;;;;;;;4.52;78.70;102385.38;5036255;28;20040;-61
2022/12/02 05:01:51;;;;;;;42.92;18.30;;;;;;;4.58;78.57;102379.59;5036149;28;20030;-61
2022/12/02 05:04:16;;;;;;;45.83;19.90;;;;;;;4.62;77.94;102376.34;5036158;28;20025;-61
2022/12/02 05:06:41;;;;;;;39.63;18.25;;;;;;;4.62;77.95;102379.88;5036158;28;20035;-61
2022/12/02 05:09:07;;;;;;;41.78;18.60;;;;;;;4.60;77.78;102380.63;5036112;28;20479;-60
2022/12/02 05:11:32;;;;;;;41.35;18.65;;;;;;;4.62;78.08;102382.50;5035225;28;20380;-60
2022/12/02 05:13:58;;;;;;;42.72;18.52;;;;;;;4.66;78.51;102378.34;5018153;28;20080;-61
2022/12/02 05:16:23;;;;;;;45.25;19.58;;;;;;;4.69;78.52;102378.53;5035904;28;20467;-61
2022/12/02 05:18:49;;;;;;;36.90;17.95;;;;;;;4.67;77.56;102368.00;5035942;28;20026;-61
2022/12/02 05:21:14;;;;;;;37.15;16.83;;;;;;;4.68;78.12;102368.88;5035857;28;20567;-61
2022/12/02 05:23:39;;;;;;;42.78;19.35;;;;;;;4.68;77.69;102369.78;5035757;28;20026;-61
2022/12/02 05:26:05;;;;;;;42.42;19.02;;;;;;;4.56;77.20;102352.44;5035730;28;20034;-61
2022/12/02 05:28:30;;;;;;;42.55;17.95;;;;;;;4.58;77.69;102383.13;5035717;28;20030;-61
2022/12/02 05:30:55;;;;;;;40.47;17.40;;;;;;;4.57;78.11;102383.94;5035638;28;20095;-61
2022/12/02 05:33:21;;;;;;;38.88;17.75;;;;;;;4.59;78.34;102377.09;5035833;28;20036;-61
2022/12/02 05:35:46;;;;;;;37.97;17.23;;;;;;;4.56;78.50;102378.63;5035722;28;20131;-61
2022/12/02 05:38:12;;;;;;;43.40;18.75;;;;;;;4.52;78.01;102367.97;5035471;28;20492;-61
2022/12/02 05:40:37;;;;;;;35.17;16.70;;;;;;;4.59;78.81;102366.63;5017731;28;20057;-61
2022/12/02 05:43:23;;;;;;;38.83;17.08;;;;;;;4.67;78.40;102369.72;5035159;28;20077;-61
2022/12/02 05:45:49;;;;;;;37.58;15.25;;;;;;;4.62;78.30;102368.50;5035189;28;20490;-61
2022/12/02 05:48:18;;;;;;;35.88;16.27;;;;;;;4.57;77.58;102363.00;5035535;28;20017;-61
2022/12/02 05:50:44;;;;;;;40.45;17.83;;;;;;;4.52;77.55;102365.34;5035226;28;20025;-61
2022/12/02 05:53:37;;;;;;;32.63;15.25;;;;;;;4.51;78.42;102366.16;5035283;28;20063;-61
2022/12/02 05:56:06;;;;;;;30.10;14.80;;;;;;;4.53;78.79;102364.53;5013363;28;20037;-61
2022/12/02 05:58:31;;;;;;;39.67;16.02;;;;;;;4.54;77.97;102360.22;5017763;28;20475;-61
2022/12/02 06:00:58;;;;;;;35.20;15.57;;;;;;;4.60;77.78;102367.53;5017396;28;20037;-61
2022/12/02 06:03:24;;;;;;;38.47;16.83;;;;;;;4.55;77.87;102361.13;5035340;28;20076;-61
2022/12/02 06:05:52;;;;;;;40.35;17.25;;;;;;;4.52;78.15;102369.69;5035089;28;20033;-61
2022/12/02 06:08:29;;;;;;;39.67;17.25;;;;;;;4.49;77.67;102361.63;5035285;28;20026;-61
2022/12/02 06:11:00;;;;;;;36.45;16.25;;;;;;;4.45;78.87;102364.88;5035097;28;20043;-61
2022/12/02 06:13:28;;;;;;;36.75;16.65;;;;;;;4.48;78.69;102365.06;5034993;28;20105;-62
2022/12/02 06:15:54;;;;;;;36.97;15.93;;;;;;;4.46;78.93;102365.00;5034857;28;20471;-60
2022/12/02 06:18:28;;;;;;;35.35;15.57;;;;;;;4.49;79.00;102366.88;5034833;28;20033;-62
2022/12/02 06:21:00;;;;;;;43.47;16.90;;;;;;;4.45;78.79;102368.44;5035043;28;20029;-61
2022/12/02 06:23:28;;;;;;;33.92;15.65;;;;;;;4.45;78.89;102365.81;5034802;28;20022;-61
2022/12/02 06:25:55;;;;;;;36.65;16.30;;;;;;;4.44;78.77;102368.31;5017026;28;20033;-61
2022/12/02 06:28:29;;;;;;;36.55;15.77;;;;;;;4.43;78.54;102363.91;5034874;28;20080;-61
2022/12/02 06:31:08;;;;;;;34.20;15.30;;;;;;;4.40;78.40;102364.59;5034636;28;20052;-61
2022/12/02 06:33:36;;;;;;;36.42;16.17;;;;;;;4.46;78.95;102367.63;5034526;28;20033;-61
2022/12/02 06:36:08;;;;;;;35.28;15.75;;;;;;;4.49;78.78;102359.91;5034413;28;20030;-61
2022/12/02 06:38:42;;;;;;;34.83;15.82;;;;;;;4.51;80.57;102357.41;5034498;28;20025;-61
2022/12/02 06:41:18;;;;;;;38.25;16.15;;;;;;;4.47;79.58;102361.56;5034578;28;20080;-61
2022/12/02 06:45:03;;;;;;;36.50;15.25;;;;;;;4.50;79.57;102361.75;5034052;28;20042;-62
2022/12/02 06:46:29;;;;;;;35.88;16.02;;;;;;;4.57;79.08;102368.25;5034024;28;20490;-61
2022/12/02 06:48:56;;;;;;;37.50;15.30;;;;;;;4.61;80.22;102361.47;5034223;28;20025;-61
2022/12/02 06:51:21;;;;;;;31.80;14.02;;;;;;;4.59;78.64;102368.34;5034394;28;20125;-61
2022/12/02 06:53:47;;;;;;;35.88;16.42;;;;;;;4.49;78.66;102364.25;5034174;28;20052;-62
2022/12/02 06:56:15;;;;;;;37.17;15.55;;;;;;;4.44;79.28;102363.09;5034072;28;20029;-61
2022/12/02 06:58:44;;;;;;;33.17;15.02;;;;;;;4.41;80.04;102358.59;5034176;28;20014;-61
2022/12/02 07:01:42;;;;;;;33.20;15.63;;;;;;;4.42;80.19;102362.09;5034124;28;20153;-62
2022/12/02 07:04:08;;;;;;;34.55;15.13;;;;;;;4.43;80.22;102364.81;5018618;28;20452;-61
2022/12/02 07:06:45;;;;;;;35.13;15.80;;;;;;;4.44;80.10;102363.09;5033736;28;20032;-61
2022/12/02 07:09:31;;;;;;;35.40;14.85;;;;;;;4.41;80.29;102369.06;5034026;28;20033;-61
2022/12/02 07:11:58;;;;;;;35.92;15.60;;;;;;;4.40;80.73;102369.84;5033830;28;20494;-61
2022/12/02 07:14:44;;;;;;;34.70;15.02;;;;;;;4.37;81.33;102374.91;5033505;28;20026;-61
2022/12/02 07:17:22;;;;;;;33.95;15.55;;;;;;;4.32;80.87;102364.97;5033940;28;20156;-61
2022/12/02 07:20:00;;;;;;;31.73;13.65;;;;;;;4.40;81.67;102368.94;5033694;28;20433;-61
2022/12/02 07:22:36;;;;;;;34.55;13.90;;;;;;;4.43;80.87;102377.88;5033892;28;20159;-61
2022/12/02 07:25:07;;;;;;;36.42;15.40;;;;;;;4.37;80.85;102377.53;5015848;28;20376;-61
2022/12/02 07:27:36;;;;;;;32.30;14.15;;;;;;;4.34;81.37;102369.50;5033447;28;20071;-61
2022/12/02 07:30:03;;;;;;;36.22;14.75;;;;;;;4.41;81.64;102371.69;5033440;28;20157;-61
2022/12/02 07:32:28;;;;;;;30.95;14.13;;;;;;;4.47;81.51;102366.78;5033691;28;20044;-61
2022/12/02 07:34:53;;;;;;;39.28;14.70;;;;;;;4.49;80.90;102367.78;5033398;28;20549;-62
2022/12/02 07:37:19;;;;;;;33.72;14.30;;;;;;;4.45;79.78;102360.59;5033264;28;20026;-61
2022/12/02 07:39:45;;;;;;;30.48;14.30;;;;;;;4.44;80.18;102365.69;5033700;28;20053;-61
2022/12/02 07:42:10;;;;;;;31.85;13.52;;;;;;;4.45;81.08;102360.59;5015502;28;20471;-62
2022/12/02 07:44:36;;;;;;;31.88;13.65;;;;;;;4.45;80.09;102368.44;5033123;28;20049;-62
2022/12/02 07:47:02;;;;;;;33.60;14.32;;;;;;;4.46;80.02;102364.09;5033469;28;20091;-61
2022/12/02 07:49:28;;;;;;;30.42;13.57;;;;;;;4.46;80.41;102364.09;5033088;28;20026;-61
2022/12/02 07:51:54;;;;;;;28.92;13.52;;;;;;;4.50;80.61;102369.59;5033388;28;20025;-62
2022/12/02 07:54:25;;;;;;;29.42;12.88;;;;;;;4.51;80.45;102358.31;5033011;28;20060;-62
2022/12/02 07:56:50;;;;;;;27.73;13.75;;;;;;;4.46;79.58;102359.75;5014906;28;20390;-62
2022/12/02 07:59:16;;;;;;;32.38;13.77;;;;;;;4.47;80.17;102368.50;5032988;28;20109;-61
2022/12/02 08:01:44;;;;;;;34.50;14.80;;;;;;;4.41;80.35;102368.13;5032944;28;20509;-61
2022/12/02 08:04:09;;;;;;;34.03;14.65;;;;;;;4.40;81.22;102371.56;5032898;28;20037;-61
2022/12/02 08:06:34;;;;;;;36.15;14.57;;;;;;;4.43;80.20;102375.28;5032933;28;20080;-61
2022/12/02 08:09:00;;;;;;;31.58;14.93;;;;;;;4.43;81.27;102372.66;5032854;28;20033;-62
2022/12/02 08:11:25;;;;;;;30.23;14.13;;;;;;;4.45;81.02;102377.97;5015242;28;20064;-61
2022/12/02 08:13:50;;;;;;;33.97;14.35;;;;;;;4.46;81.22;102374.56;5032802;28;20022;-61
2022/12/02 08:16:16;;;;;;;34.55;15.63;;;;;;;4.49;80.97;102377.34;5032842;28;20379;-61
2022/12/02 08:18:41;;;;;;;32.63;15.65;;;;;;;4.46;81.51;102377.19;5032272;28;20100;-61
2022/12/02 08:21:06;;;;;;;37.22;16.25;;;;;;;4.40;81.26;102361.09;5033067;28;20109;-61
2022/12/02 08:23:32;;;;;;;34.53;16.15;;;;;;;4.48;82.66;102372.94;5032865;28;20021;-61
2022/12/02 08:25:57;;;;;;;36.80;17.15;;;;;;;4.44;83.60;102370.94;5032715;28;20034;-61
2022/12/02 08:28:22;;;;;;;35.88;16.85;;;;;;;4.36;82.82;102373.09;5032756;28;20474;-62
2022/12/02 08:30:48;;;;;;;35.55;16.23;;;;;;;4.33;83.06;102370.31;5032778;28;20129;-61
2022/12/02 08:33:13;;;;;;;37.60;16.30;;;;;;;4.34;82.84;102366.88;5032594;28;20033;-61
2022/12/02 08:35:38;;;;;;;36.25;16.95;;;;;;;4.32;82.99;102371.09;5032539;28;20029;-62
2022/12/02 08:38:06;;;;;;;41.80;17.95;;;;;;;4.35;83.69;102367.78;5032650;28;20029;-61
2022/12/02 08:40:32;;;;;;;41.80;18.45;;;;;;;4.33;83.29;102372.94;5032611;28;20018;-61
2022/12/02 08:42:58;;;;;;;37.08;16.67;;;;;;;4.28;83.15;102366.47;5032280;28;20037;-61
2022/12/02 08:45:23;;;;;;;39.13;18.10;;;;;;;4.19;84.14;102369.44;5032743;28;20040;-62
2022/12/02 08:47:48;;;;;;;35.42;16.35;;;;;;;4.16;84.82;102364.06;5032507;28;20034;-61
2022/12/02 08:50:14;;;;;;;36.42;16.58;;;;;;;4.20;85.01;102371.28;5032399;28;20053;-62
2022/12/02 08:52:40;;;;;;;36.42;15.75;;;;;;;4.22;84.48;102371.34;5032412;28;20084;-61
2022/12/02 08:55:05;;;;;;;32.92;14.85;;;;;;;4.23;84.30;102374.06;5032643;28;20029;-61
2022/12/02 08:57:31;;;;;;;36.42;14.55;;;;;;;4.22;84.87;102366.13;5032408;28;20595;-61
2022/12/02 08:59:56;;;;;;;35.70;16.15;;;;;;;4.22;85.38;102367.03;5015102;28;20030;-61
2022/12/02 09:02:21;;;;;;;37.63;16.27;;;;;;;4.25;84.96;102363.72;5032449;28;20021;-61
2022/12/02 09:04:47;;;;;;;34.10;15.68;;;;;;;4.26;85.57;102363.78;5032630;28;20037;-61
2022/12/02 09:07:12;;;;;;;35.13;15.85;;;;;;;4.29;86.54;102367.41;5032355;28;20026;-62
2022/12/02 09:09:37;;;;;;;29.15;14.15;;;;;;;4.26;86.48;102366.41;5032276;28;20109;-62
2022/12/02 09:12:03;;;;;;;29.15;14.00;;;;;;;4.23;85.59;102373.16;5032247;28;20026;-62
2022/12/02 09:14:28;;;;;;;29.77;14.90;;;;;;;4.15;86.05;102374.41;5014603;28;20041;-62
2022/12/02 09:16:54;;;;;;;32.13;13.20;;;;;;;4.13;87.01;102369.09;5032558;28;20099;-62
2022/12/02 09:19:19;;;;;;;30.73;15.02;;;;;;;4.07;86.69;102368.72;5032187;28;20056;-62
2022/12/02 09:21:44;;;;;;;33.25;14.13;;;;;;;4.05;87.98;102366.81;5032222;28;20026;-62
2022/12/02 09:24:10;;;;;;;31.30;13.57;;;;;;;4.02;87.87;102359.66;5014534;28;20032;-62
2022/12/02 09:26:35;;;;;;;31.13;13.10;;;;;;;4.07;87.83;102362.56;5014521;28;20022;-62
2022/12/02 09:29:01;;;;;;;26.90;12.95;;;;;;;4.08;87.82;102356.53;5032211;28;20038;-62
2022/12/02 09:31:26;;;;;;;27.23;13.38;;;;;;;4.07;87.94;102360.88;5034766;28;20022;-63
2022/12/02 09:33:51;;;;;;;28.65;13.10;;;;;;;4.08;88.99;102356.53;5035639;28;20359;-62
2022/12/02 09:36:17;;;;;;;30.85;13.55;;;;;;;4.07;88.88;102366.09;5035689;28;20025;-62
2022/12/02 09:38:42;;;;;;;31.85;13.85;;;;;;;4.08;89.09;102354.81;5035553;28;20022;-62
2022/12/02 09:41:08;;;;;;;26.95;13.55;;;;;;;4.09;88.76;102356.63;5017837;28;20052;-62
2022/12/02 09:43:33;;;;;;;24.10;12.77;;;;;;;4.15;88.30;102349.13;5035098;28;20057;-62
2022/12/02 09:45:59;;;;;;;35.05;13.77;;;;;;;4.16;88.05;102352.69;5035596;28;20452;-63
2022/12/02 09:48:27;;;;;;;30.55;12.65;;;;;;;4.23;88.88;102344.38;5035722;28;20029;-62
2022/12/02 09:50:52;;;;;;;25.38;13.15;;;;;;;4.22;88.34;102345.19;5035334;28;20036;-62
2022/12/02 09:53:19;;;;;;;28.35;13.88;;;;;;;4.24;88.82;102338.34;5035273;28;20374;-62
2022/12/02 09:55:45;;;;;;;27.17;12.88;;;;;;;4.22;88.11;102340.88;5035382;28;20095;-62
2022/12/02 09:58:14;;;;;;;31.55;15.38;;;;;;;4.29;89.15;102343.88;5035224;28;20025;-62
2022/12/02 10:00:39;;;;;;;30.38;13.38;;;;;;;4.20;87.96;102349.44;5035185;28;20061;-62
2022/12/02 10:03:06;;;;;;;27.80;12.75;;;;;;;4.20;89.03;102344.22;5035167;28;20113;-63
2022/12/02 10:05:32;;;;;;;27.98;13.05;;;;;;;4.17;89.36;102336.16;5035411;28;20088;-62
2022/12/02 10:07:59;;;;;;;27.10;12.65;;;;;;;4.15;88.47;102348.25;5035366;28;20436;-63
2022/12/02 10:10:34;;;;;;;28.38;12.45;;;;;;;4.09;89.42;102347.88;5035007;28;20042;-62
2022/12/02 10:13:01;;;;;;;28.67;12.68;;;;;;;4.13;89.61;102345.53;5035156;28;20049;-62
2022/12/02 10:15:28;;;;;;;29.60;12.43;;;;;;;4.20;89.47;102346.84;5034880;28;20068;-62
2022/12/02 10:17:54;;;;;;;31.90;13.48;;;;;;;4.17;89.57;102342.31;5035022;28;20030;-62
2022/12/02 10:20:29;;;;;;;34.55;14.20;;;;;;;4.19;90.06;102342.38;5034739;28;20030;-62
2022/12/02 10:23:04;;;;;;;32.30;13.98;;;;;;;4.18;89.90;102344.09;5034808;28;20505;-62
2022/12/02 10:25:30;;;;;;;32.78;13.80;;;;;;;4.25;89.73;102343.66;5035038;28;20022;-62
2022/12/02 10:27:56;;;;;;;34.72;14.38;;;;;;;4.33;88.94;102338.91;5034952;28;20352;-62
2022/12/02 10:30:24;;;;;;;38.63;15.77;;;;;;;4.31;88.91;102337.00;5034669;28;20072;-62
2022/12/02 10:33:02;;;;;;;38.92;15.55;;;;;;;4.34;89.25;102340.72;5034587;28;20036;-62
2022/12/02 10:35:41;;;;;;;37.30;15.80;;;;;;;4.26;88.81;102328.88;5034615;28;20181;-62
2022/12/02 10:38:36;;;;;;;44.65;17.00;;;;;;;4.26;89.21;102323.63;5034591;28;20036;-62
2022/12/02 10:41:14;;;;;;;37.92;15.05;;;;;;;4.29;89.36;102323.84;5009181;28;20041;-62
2022/12/02 10:43:51;;;;;;;41.70;15.20;;;;;;;4.34;89.33;102322.38;5034105;28;20064;-62
2022/12/02 10:46:21;;;;;;;45.97;16.95;;;;;;;4.34;88.46;102325.00;5034392;28;20026;-62
2022/12/02 10:48:47;;;;;;;44.65;16.17;;;;;;;4.30;88.65;102315.16;5034333;28;20037;-62
2022/12/02 10:51:18;;;;;;;43.33;16.85;;;;;;;4.24;87.60;102315.72;5034507;28;20026;-62
2022/12/02 10:53:45;;;;;;;46.45;16.70;;;;;;;4.26;88.28;102319.31;5034485;28;20072;-62
2022/12/02 10:56:19;;;;;;;49.05;16.80;;;;;;;4.32;87.94;102317.84;5016632;28;20033;-62
2022/12/02 10:58:46;;;;;;;45.90;16.75;;;;;;;4.39;88.41;102317.41;5034204;28;20033;-62
2022/12/02 11:01:12;;;;;;;45.65;17.60;;;;;;;4.45;87.56;102309.91;5034025;28;20097;-63
2022/12/02 11:03:39;;;;;;;50.33;18.10;;;;;;;4.48;87.15;102304.88;5034296;28;20026;-63
2022/12/02 11:06:13;;;;;;;44.75;17.60;;;;;;;4.49;87.29;102310.19;5034043;28;20075;-62
2022/12/02 11:08:41;;;;;;;41.58;15.52;;;;;;;4.47;86.73;102311.81;5033903;28;20479;-63
2022/12/02 11:11:06;;;;;;;46.40;16.33;;;;;;;4.46;86.36;102306.53;5033944;28;20025;-63
2022/12/02 11:13:55;;;;;;;42.30;16.90;;;;;;;4.51;87.13;102300.72;5033755;28;20137;-62
2022/12/02 11:16:27;;;;;;;47.72;16.58;;;;;;;4.55;87.44;102309.66;5033930;28;20374;-62
2022/12/02 11:19:04;;;;;;;47.05;17.25;;;;;;;4.61;86.45;102306.50;5034103;28;20074;-62
2022/12/02 11:21:29;;;;;;;43.90;16.50;;;;;;;4.67;86.39;102301.63;5034120;28;20060;-62
2022/12/02 11:24:22;;;;;;;45.72;17.17;;;;;;;4.72;86.40;102308.03;5033891;28;20044;-62